Coal Harbour, Canada
Current Conditions -  °F | °C
As of 6:00 PM on Saturday 22 Nov 2014 (Local Time) from CYZT Reporting Station
Rain Showers Rain Showers  
Wind Chill: 38°   Ceiling: 5200
Heat Index: 41°   Visibility: 15mi
Dew Point: 41°   Wind: 5mph
Humidity: 100%   Direction: 170°S
Pressure: 29.87"   Gusts: NA
Location:  50.6°N, 127.58°W
Report Text: CYZT 230200Z 17004KT 15SM -SHRA FEW030 BKN052 BKN070 05/05 A2987 RMK SC1SC4AC1 SLP115
Loading
Personal Weather Stations






























Interactive Weather Map New forecast layout! Learn more

10-Day Weather Forecast

Advertisements
Track Severe Weather on mobile